Omaha/Offutt AFB, Nebraska
Current Conditions -  °F | °C
As of 6:58 PM on Friday 24 Oct 2014 (Local Time) from KOFF Reporting Station
Clear Clear  
Wind Chill: 60°   Ceiling: Unl
Heat Index: 60°   Visibility: 10mi
Dew Point: 60°   Wind: 1mph
Humidity: 99%   Direction: 50°NE
Pressure: 29.93"   Gusts: NA
Location:  41.12°N, 95.92°W
Report Text: KOFF 242358Z AUTO 05001KT 10SM CLR 16/16 A2993 RMK AO2 SLP138 T01570156 10246 20157 53010
Loading
Personal Weather Stations






























Interactive Weather Map
Tropical Storm Tracking
New forecast layout! Learn more

10-Day Weather Forecast

Advertisements
Track Severe Weather on mobile